Time;durP1;ratioP1;P1;durP2;ratioP2;P2;SDS_P1;SDS_P2;PMS_P1;PMS_P2;Temp;Humidity;BMP_temperature;BMP_pressure;BME280_temperature;BME280_humidity;BME280_pressure;Samples;Min_cycle;Max_cycle;Signal;HPM_P1;HPM_P2
2023/12/29 00:00:51;;;;;;;5.40;4.90;;;8.40;86.10;;;7.71;87.36;97937.84;5022575;28;20942;-68
2023/12/29 00:03:18;;;;;;;5.77;4.97;;;8.40;86.00;;;7.59;87.42;97940.28;5019822;28;20955;-69
2023/12/29 00:05:45;;;;;;;6.73;5.30;;;8.40;85.80;;;7.61;87.70;97938.22;5007271;28;20490;-67
2023/12/29 00:08:13;;;;;;;10.57;4.57;;;8.40;86.00;;;7.77;87.18;97937.03;5006471;28;21022;-68
2023/12/29 00:10:40;;;;;;;4.87;4.47;;;8.50;86.10;;;7.70;87.85;97937.00;5015052;28;20996;-69
2023/12/29 00:13:09;;;;;;;5.70;5.20;;;8.50;86.10;;;7.81;86.85;97943.72;5010883;28;20951;-67
2023/12/29 00:15:37;;;;;;;6.00;5.00;;;8.50;86.00;;;7.82;86.88;97945.38;5027919;28;20456;-68
2023/12/29 00:18:06;;;;;;;7.60;4.57;;;8.60;86.00;;;7.56;87.23;97903.84;5014864;28;20452;-68
2023/12/29 00:20:33;;;;;;;6.33;4.60;;;8.60;86.00;;;7.84;86.81;97948.69;5027976;28;20563;-69
2023/12/29 00:23:01;;;;;;;5.37;4.23;;;8.60;85.90;;;7.97;86.47;97949.78;5024245;28;20868;-68
2023/12/29 00:25:28;;;;;;;8.87;5.17;;;8.70;86.10;;;7.96;86.18;97940.03;5026241;28;20458;-68
2023/12/29 00:27:55;;;;;;;6.23;4.13;;;8.70;85.70;;;7.88;87.26;97949.09;5026129;28;21057;-68
2023/12/29 00:30:26;;;;;;;5.83;4.97;;;8.70;85.80;;;7.73;87.21;97938.47;5021971;28;20459;-68
2023/12/29 00:32:53;;;;;;;6.20;4.13;;;8.60;85.80;;;7.59;88.37;97935.72;5004608;28;20498;-67
2023/12/29 00:35:21;;;;;;;4.87;4.30;;;8.40;86.30;;;7.43;89.06;97936.03;5025322;28;20456;-68
2023/12/29 00:37:48;;;;;;;4.97;4.37;;;8.30;86.60;;;7.31;90.31;97938.44;5007216;28;20451;-68
2023/12/29 00:40:17;;;;;;;6.37;4.80;;;8.20;87.10;;;7.22;90.44;97943.16;5024942;28;20505;-68
2023/12/29 00:42:45;;;;;;;6.27;4.27;;;8.00;87.40;;;7.11;91.75;97938.31;5008440;28;20477;-68
2023/12/29 00:45:13;;;;;;;4.80;4.30;;;8.00;88.10;;;7.23;91.89;97932.19;5020487;28;20460;-68
2023/12/29 00:47:42;;;;;;;7.03;4.33;;;8.00;88.90;;;7.20;91.55;97929.03;5016743;28;20469;-67
2023/12/29 00:50:10;;;;;;;4.60;4.13;;;8.00;89.30;;;7.36;91.37;97927.94;5010287;28;20447;-68
2023/12/29 00:52:39;;;;;;;5.10;4.40;;;8.10;89.20;;;7.43;91.13;97925.28;5026755;28;20524;-67
2023/12/29 00:55:07;;;;;;;4.97;4.47;;;8.10;89.40;;;7.58;89.88;97934.06;4988958;28;20488;-67
2023/12/29 00:57:36;;;;;;;5.00;4.43;;;8.30;88.80;;;7.54;90.47;97927.44;4989544;28;20443;-69
2023/12/29 01:00:05;;;;;;;4.23;3.83;;;8.30;88.60;;;7.57;89.98;97918.97;5009535;28;20840;-68
2023/12/29 01:02:32;;;;;;;6.20;4.23;;;8.30;88.50;;;7.55;89.75;97906.72;5019274;28;20462;-66
2023/12/29 01:05:01;;;;;;;3.60;3.30;;;8.30;88.40;;;7.63;90.39;97928.91;5005087;28;20454;-68
2023/12/29 01:07:28;;;;;;;3.80;3.37;;;8.40;88.40;;;7.70;89.34;97928.94;5001742;28;20482;-67
2023/12/29 01:09:55;;;;;;;4.43;3.00;;;8.40;88.10;;;7.74;90.10;97921.31;5023599;28;20450;-67
2023/12/29 01:12:23;;;;;;;3.90;2.90;;;8.50;88.10;;;7.76;88.84;97930.00;5028953;28;20935;-67
2023/12/29 01:14:50;;;;;;;3.97;3.57;;;8.60;87.80;;;7.85;89.49;97930.66;5019879;28;20455;-69
2023/12/29 01:17:17;;;;;;;4.00;3.60;;;8.60;87.70;;;7.85;89.02;97931.50;5022161;28;20447;-68
2023/12/29 01:19:45;;;;;;;3.10;2.63;;;8.70;87.40;;;7.90;88.49;97926.34;5004068;28;20455;-68
2023/12/29 01:22:13;;;;;;;3.60;3.03;;;8.70;87.40;;;7.81;89.30;97914.13;5021441;28;20504;-68
2023/12/29 01:24:41;;;;;;;3.50;3.20;;;8.70;87.30;;;7.85;89.19;97917.22;5006844;28;20455;-68
2023/12/29 01:27:08;;;;;;;3.30;3.00;;;8.70;87.40;;;7.90;88.98;97912.09;5023994;28;20471;-67
2023/12/29 01:29:35;;;;;;;3.63;2.97;;;8.70;87.30;;;7.83;89.07;97919.28;5029059;28;20470;-69
2023/12/29 01:32:06;;;;;;;3.73;3.33;;;8.70;87.30;;;7.92;87.92;97913.53;5017543;28;20502;-68
2023/12/29 01:34:35;;;;;;;3.60;2.93;;;8.70;87.20;;;7.87;88.63;97918.69;5010580;28;20460;-68
2023/12/29 01:37:04;;;;;;;2.90;2.70;;;8.70;87.00;;;7.81;88.27;97916.81;5004394;28;20455;-68
2023/12/29 01:39:36;;;;;;;3.17;2.60;;;8.70;86.90;;;7.67;89.59;97901.66;5022081;28;20603;-68
2023/12/29 01:42:03;;;;;;;3.67;3.00;;;8.50;87.20;;;7.67;89.29;97920.47;5021525;28;20633;-68
2023/12/29 01:44:31;;;;;;;2.70;2.50;;;8.50;87.30;;;7.74;88.63;97916.78;5008239;28;20451;-68
2023/12/29 01:47:00;;;;;;;3.77;2.40;;;8.60;87.20;;;7.71;89.00;97901.03;5028476;28;20529;-69
2023/12/29 01:49:29;;;;;;;3.53;2.47;;;8.60;87.10;;;7.93;87.24;97907.13;5004941;28;20450;-68
2023/12/29 01:51:59;;;;;;;2.30;2.10;;;8.70;86.80;;;7.93;86.91;97915.19;5004333;28;20803;-68
2023/12/29 01:54:33;;;;;;;3.37;2.50;;;8.80;86.50;;;8.02;87.59;97906.94;5011171;28;21015;-69
2023/12/29 01:57:04;;;;;;;4.13;2.90;;;8.90;86.50;;;7.99;87.21;97902.78;4997407;28;20530;-68
2023/12/29 01:59:33;;;;;;;5.33;2.77;;;8.90;86.40;;;8.07;87.23;97885.63;5025906;28;20468;-68
2023/12/29 02:02:02;;;;;;;2.93;2.63;;;8.90;86.30;;;7.96;87.71;97881.69;5003578;28;20521;-68
2023/12/29 02:04:29;;;;;;;3.20;2.90;;;8.80;86.30;;;7.95;87.01;97885.41;5028123;28;20465;-67
2023/12/29 02:06:57;;;;;;;2.40;2.20;;;8.80;86.50;;;7.90;87.99;97877.94;5010425;28;20479;-68
2023/12/29 02:09:24;;;;;;;3.40;2.53;;;8.80;86.30;;;7.91;87.43;97890.34;5029640;28;20548;-68
2023/12/29 02:11:52;;;;;;;3.10;2.87;;;8.80;86.40;;;7.86;87.57;97881.22;5006869;28;20959;-67
2023/12/29 02:14:21;;;;;;;3.23;2.60;;;8.70;86.30;;;7.81;87.98;97884.53;4987930;28;20464;-67
2023/12/29 02:16:57;;;;;;;3.40;2.97;;;8.70;86.20;;;7.81;87.08;97881.84;5019040;28;20445;-67
2023/12/29 02:19:39;;;;;;;4.33;2.80;;;8.70;86.20;;;7.82;87.79;97880.81;5020017;28;20570;-67
2023/12/29 02:22:08;;;;;;;2.90;2.60;;;8.70;86.30;;;7.75;87.46;97882.63;5001166;28;20513;-67
2023/12/29 02:24:40;;;;;;;3.23;2.93;;;8.70;86.20;;;7.80;87.41;97874.78;5027059;28;20454;-67
2023/12/29 02:27:25;;;;;;;3.30;2.83;;;8.70;86.20;;;7.60;87.68;97862.09;5008891;28;20478;-68
2023/12/29 02:30:09;;;;;;;3.30;3.00;;;8.60;86.10;;;7.69;87.61;97870.00;5025348;28;20459;-68
2023/12/29 02:32:41;;;;;;;3.43;3.13;;;8.60;86.00;;;7.55;87.80;97883.38;5022824;28;21026;-68
2023/12/29 02:35:12;;;;;;;3.93;3.40;;;8.50;85.90;;;7.46;87.67;97868.44;5023571;28;20532;-68
2023/12/29 02:37:41;;;;;;;3.77;3.47;;;8.50;86.10;;;7.50;87.57;97893.88;5007571;28;20458;-68
2023/12/29 02:40:09;;;;;;;3.47;3.17;;;8.40;86.00;;;7.46;87.53;97898.00;5010660;28;20457;-68
2023/12/29 02:42:39;;;;;;;3.40;3.10;;;8.40;86.00;;;7.48;88.58;97890.56;5021579;28;20582;-68
2023/12/29 02:45:08;;;;;;;4.17;3.53;;;8.40;86.40;;;7.46;89.05;97895.31;5025708;28;20451;-68
2023/12/29 02:47:37;;;;;;;5.53;3.70;;;8.40;86.70;;;7.46;90.06;97887.25;5025291;28;20477;-69
2023/12/29 02:50:05;;;;;;;4.43;3.73;;;8.30;87.20;;;7.31;90.42;97877.44;5026179;28;20442;-67
2023/12/29 02:52:33;;;;;;;3.87;3.57;;;8.30;87.40;;;7.09;91.40;97872.16;5011168;28;20451;-67
2023/12/29 02:55:01;;;;;;;5.57;3.90;;;8.10;87.90;;;7.07;92.38;97871.53;5009752;28;20462;-67
2023/12/29 02:57:29;;;;;;;4.80;4.30;;;8.00;88.40;;;6.97;92.45;97857.59;4992848;28;20483;-68
2023/12/29 03:00:00;;;;;;;5.10;4.30;;;8.00;89.10;;;6.97;93.20;97862.13;5012454;28;20541;-68
2023/12/29 03:02:27;;;;;;;4.83;4.40;;;7.90;89.40;;;6.96;93.69;97861.31;5027234;28;20955;-68
2023/12/29 03:04:57;;;;;;;5.53;5.03;;;7.90;90.00;;;6.87;93.97;97846.38;5024920;28;20443;-67
2023/12/29 03:07:27;;;;;;;4.67;4.17;;;7.80;90.10;;;6.99;93.36;97847.50;5026059;28;20480;-67
2023/12/29 03:09:55;;;;;;;5.37;4.87;;;7.80;90.10;;;6.98;92.71;97848.53;4997708;28;20473;-67
2023/12/29 03:12:23;;;;;;;5.23;4.73;;;7.80;90.00;;;6.87;93.15;97835.63;5026192;28;20811;-68
2023/12/29 03:14:52;;;;;;;5.77;4.50;;;7.80;89.90;;;6.97;93.21;97841.50;5005827;28;20979;-68
2023/12/29 03:17:21;;;;;;;5.77;5.27;;;7.80;89.90;;;6.86;92.83;97840.19;5026050;28;21005;-67
2023/12/29 03:19:48;;;;;;;6.33;5.20;;;7.80;89.40;;;6.83;93.32;97839.72;5025163;28;20456;-68
2023/12/29 03:22:16;;;;;;;6.00;5.40;;;7.80;89.80;;;6.84;93.54;97833.34;5005096;28;20470;-68
2023/12/29 03:24:43;;;;;;;5.53;5.03;;;7.70;89.80;;;6.80;93.51;97825.69;5028114;28;20512;-68
2023/12/29 03:27:11;;;;;;;5.40;4.93;;;7.70;89.90;;;6.90;92.63;97824.47;5029721;28;20482;-69
2023/12/29 03:29:38;;;;;;;6.40;5.20;;;7.70;89.70;;;6.78;93.05;97825.03;5009228;28;20525;-68
2023/12/29 03:32:07;;;;;;;5.37;4.93;;;7.70;89.90;;;6.76;93.30;97826.25;5009041;28;20940;-68
2023/12/29 03:34:36;;;;;;;5.50;4.87;;;7.70;90.00;;;6.75;93.83;97822.75;5029291;28;20455;-68
2023/12/29 03:37:06;;;;;;;5.13;4.63;;;7.70;90.10;;;6.88;93.14;97822.00;5006521;28;20458;-68
2023/12/29 03:39:35;;;;;;;5.73;5.10;;;7.70;90.20;;;6.77;93.17;97826.06;5032106;28;20834;-68
2023/12/29 03:42:03;;;;;;;5.40;4.90;;;7.70;89.70;;;6.77;93.47;97826.06;5027017;28;20462;-67
2023/12/29 03:44:30;;;;;;;5.70;5.10;;;7.70;89.90;;;6.78;93.11;97817.00;5027341;28;20504;-68
2023/12/29 03:46:58;;;;;;;6.50;4.87;;;7.70;90.00;;;6.66;93.19;97824.72;4980602;28;20484;-68
2023/12/29 03:49:26;;;;;;;9.60;5.23;;;7.70;89.50;;;6.71;92.91;97812.59;5003090;28;20471;-68
2023/12/29 03:51:55;;;;;;;6.03;5.23;;;7.60;89.90;;;6.61;92.89;97821.81;5022158;28;20452;-68
2023/12/29 03:54:22;;;;;;;7.03;5.50;;;7.50;89.40;;;6.51;93.11;97815.94;5023945;28;20518;-68
2023/12/29 03:56:49;;;;;;;6.60;5.90;;;7.40;89.70;;;6.35;93.89;97814.38;5021069;28;20478;-67
2023/12/29 03:59:18;;;;;;;6.30;5.70;;;7.30;90.00;;;6.16;94.67;97824.75;5023657;28;20501;-67
2023/12/29 04:01:46;;;;;;;7.70;5.80;;;7.20;90.30;;;6.19;95.29;97818.16;5025147;28;20553;-66
2023/12/29 04:04:13;;;;;;;7.80;5.37;;;7.10;90.60;;;6.14;95.66;97816.06;5009449;28;21031;-68
2023/12/29 04:06:41;;;;;;;6.90;6.17;;;7.00;91.00;;;6.19;95.72;97820.81;5002440;28;20459;-67
2023/12/29 04:09:09;;;;;;;7.93;5.73;;;7.00;91.30;;;6.27;95.04;97827.91;5004515;28;20485;-68
2023/12/29 04:11:37;;;;;;;10.10;5.97;;;7.10;91.20;;;6.28;94.44;97833.09;5027396;28;20860;-68
2023/12/29 04:14:04;;;;;;;6.10;5.17;;;7.20;90.90;;;6.00;93.81;97757.91;5031686;28;20923;-68
2023/12/29 04:16:31;;;;;;;5.67;4.93;;;7.30;90.60;;;6.28;94.08;97816.16;5019411;28;20451;-68
2023/12/29 04:18:58;;;;;;;6.77;5.73;;;7.20;90.50;;;6.24;94.20;97815.75;5022487;28;20498;-67
2023/12/29 04:21:26;;;;;;;6.73;6.00;;;7.20;90.70;;;6.30;94.62;97814.97;5007272;28;20987;-67
2023/12/29 04:23:53;;;;;;;7.27;5.73;;;7.20;90.70;;;6.33;94.55;97824.47;5024795;28;20553;-68
2023/12/29 04:26:25;;;;;;;6.20;5.60;;;7.20;90.60;;;6.29;94.33;97815.13;5026331;28;20451;-68
2023/12/29 04:28:53;;;;;;;6.83;5.60;;;7.20;90.50;;;6.35;94.42;97809.81;5007050;28;20524;-68
2023/12/29 04:31:20;;;;;;;6.40;5.80;;;7.30;90.50;;;6.35;94.28;97806.34;5024070;28;20533;-68
2023/12/29 04:33:47;;;;;;;9.47;6.50;;;7.30;90.40;;;6.27;94.19;97820.72;5026383;28;20454;-68
2023/12/29 04:36:16;;;;;;;9.00;6.43;;;7.20;90.50;;;6.28;94.46;97808.09;5018469;28;20554;-67
2023/12/29 04:38:43;;;;;;;7.40;5.80;;;7.20;90.60;;;6.34;94.25;97800.13;5003077;28;20532;-67
2023/12/29 04:41:14;;;;;;;6.03;5.43;;;7.20;90.50;;;6.27;94.35;97798.41;5020190;28;20447;-68
2023/12/29 04:43:43;;;;;;;7.57;6.57;;;7.10;90.70;;;6.37;94.17;97802.44;5024593;28;20853;-67
2023/12/29 04:46:10;;;;;;;7.20;6.50;;;7.20;90.80;;;6.30;94.61;97801.53;5021556;28;21097;-68
2023/12/29 04:48:37;;;;;;;7.73;5.80;;;7.20;90.70;;;6.31;94.53;97805.06;5024192;28;20827;-67
2023/12/29 04:51:05;;;;;;;6.10;5.47;;;7.10;90.90;;;6.02;94.28;97748.66;5012833;28;20462;-67
2023/12/29 04:53:32;;;;;;;6.40;5.63;;;7.20;90.80;;;6.43;93.76;97808.03;5023464;28;20438;-67
2023/12/29 04:56:02;;;;;;;5.63;4.90;;;7.30;90.50;;;6.45;93.92;97806.84;5007924;28;20463;-67
2023/12/29 04:58:29;;;;;;;9.00;5.30;;;7.30;90.40;;;6.04;93.48;97756.53;5019001;28;20455;-67
2023/12/29 05:00:58;;;;;;;6.23;5.33;;;7.30;90.40;;;6.52;93.68;97828.34;5002014;28;20937;-67
2023/12/29 05:03:25;;;;;;;7.50;5.43;;;7.30;90.60;;;6.51;94.05;97827.53;5005592;28;20467;-67
2023/12/29 05:05:53;;;;;;;6.73;4.70;;;7.30;90.70;;;6.50;94.36;97831.22;5027812;28;20861;-67
2023/12/29 05:08:27;;;;;;;4.80;4.30;;;7.30;90.80;;;6.62;93.77;97822.66;5028649;28;20882;-68
2023/12/29 05:10:55;;;;;;;5.37;4.50;;;7.40;90.90;;;6.81;92.74;97818.44;5023530;28;20482;-67
2023/12/29 05:13:22;;;;;;;4.83;4.33;;;7.50;90.70;;;6.95;92.16;97822.06;5006987;28;20448;-68
2023/12/29 05:15:51;;;;;;;4.93;4.43;;;7.70;90.20;;;7.01;90.92;97826.63;5004274;28;20457;-67
2023/12/29 05:18:22;;;;;;;4.40;3.97;;;7.80;89.40;;;6.98;90.48;97816.28;5021568;28;20505;-68
2023/12/29 05:20:54;;;;;;;7.33;3.80;;;7.90;88.80;;;6.98;90.98;97813.59;5020689;28;20460;-68
2023/12/29 05:23:22;;;;;;;5.10;4.23;;;7.80;89.10;;;6.93;90.88;97808.00;5023778;28;20475;-68
2023/12/29 05:25:50;;;;;;;4.77;3.97;;;7.80;88.80;;;6.96;91.16;97807.59;5028350;28;20459;-69
2023/12/29 05:28:17;;;;;;;4.83;4.27;;;7.80;89.00;;;6.96;90.59;97807.59;5001656;28;20997;-67
2023/12/29 05:30:45;;;;;;;6.03;4.90;;;7.80;88.80;;;6.85;90.76;97810.81;5030407;28;20465;-66
2023/12/29 05:33:12;;;;;;;6.17;5.00;;;7.70;88.60;;;6.71;91.89;97809.91;5028148;28;20454;-67
2023/12/29 05:35:40;;;;;;;7.00;6.30;;;7.60;88.80;;;6.54;92.05;97801.31;5019213;28;20459;-68
2023/12/29 05:38:10;;;;;;;6.33;4.87;;;7.40;88.80;;;6.37;92.89;97813.16;5027494;28;20553;-67
2023/12/29 05:40:38;;;;;;;6.63;4.90;;;7.20;89.60;;;6.23;93.57;97814.88;5024883;28;20449;-68
2023/12/29 05:43:08;;;;;;;5.20;4.70;;;7.00;90.30;;;6.26;93.61;97810.16;5024929;28;20453;-68
2023/12/29 05:45:38;;;;;;;6.23;5.30;;;7.00;90.80;;;6.17;94.20;97825.56;5022355;28;20460;-68
2023/12/29 05:48:07;;;;;;;5.73;5.10;;;6.90;90.90;;;6.05;94.43;97811.84;5020098;28;20486;-67
2023/12/29 05:50:36;;;;;;;12.73;5.93;;;6.90;91.10;;;5.99;95.53;97829.50;5000935;28;20451;-68
2023/12/29 05:53:06;;;;;;;5.60;5.03;;;6.80;91.40;;;5.93;95.40;97825.72;5019477;28;20462;-68
2023/12/29 05:55:34;;;;;;;5.67;5.17;;;6.70;91.40;;;5.81;95.70;97819.19;5009904;28;20455;-67
2023/12/29 05:58:03;;;;;;;9.20;6.03;;;6.60;91.50;;;5.80;96.53;97826.41;5018375;28;20528;-68
2023/12/29 06:00:30;;;;;;;7.50;5.20;;;6.50;92.00;;;5.81;96.64;97822.72;5023338;28;20543;-68
2023/12/29 06:02:58;;;;;;;6.83;6.07;;;6.60;92.40;;;5.61;97.62;97819.78;5011540;28;20458;-68
2023/12/29 06:05:25;;;;;;;7.03;6.23;;;6.50;92.80;;;5.55;98.30;97823.25;4999820;28;20875;-68
2023/12/29 06:07:53;;;;;;;8.37;6.23;;;6.50;92.70;;;5.51;98.09;97827.28;5016550;28;20472;-68
2023/12/29 06:10:22;;;;;;;6.83;5.90;;;6.40;92.70;;;5.37;98.51;97816.41;5008718;28;21007;-68
2023/12/29 06:12:49;;;;;;;6.80;6.10;;;6.30;92.80;;;5.28;99.35;97814.88;5017502;28;20453;-68
2023/12/29 06:15:17;;;;;;;8.47;6.73;;;6.30;92.80;;;5.19;100.00;97810.63;5003422;28;20448;-67
2023/12/29 06:17:45;;;;;;;9.33;6.87;;;6.20;93.10;;;5.24;99.63;97800.19;5026258;28;20458;-68
2023/12/29 06:20:13;;;;;;;7.30;6.43;;;6.20;93.40;;;5.13;100.00;97788.06;5000575;28;20453;-68
2023/12/29 06:22:42;;;;;;;10.53;6.50;;;6.10;93.30;;;5.15;100.00;97791.41;5020951;28;20454;-67
2023/12/29 06:25:11;;;;;;;6.77;6.17;;;6.10;93.50;;;5.00;100.00;97778.03;5026440;28;20516;-67
2023/12/29 06:27:40;;;;;;;8.93;6.87;;;6.00;93.70;;;4.68;100.00;97721.19;4999483;28;20505;-67
2023/12/29 06:30:10;;;;;;;7.43;6.10;;;6.00;94.20;;;4.62;100.00;97716.56;5002739;28;20448;-68
2023/12/29 06:32:38;;;;;;;9.77;7.57;;;6.00;94.30;;;5.07;100.00;97784.28;5014661;28;20655;-69
2023/12/29 06:35:07;;;;;;;10.20;6.73;;;6.00;94.50;;;5.07;100.00;97784.28;4996092;28;20551;-68
2023/12/29 06:37:34;;;;;;;8.33;6.43;;;6.00;94.30;;;5.03;100.00;97777.66;5006940;28;21003;-68
2023/12/29 06:40:02;;;;;;;8.73;6.73;;;6.00;94.40;;;5.10;100.00;97783.94;5010423;28;21114;-68
2023/12/29 06:42:29;;;;;;;7.47;6.40;;;6.10;94.40;;;5.28;100.00;97779.19;5017477;28;20448;-67
2023/12/29 06:44:58;;;;;;;10.07;6.47;;;6.20;94.70;;;5.45;100.00;97785.19;5015387;28;20454;-67
2023/12/29 06:47:26;;;;;;;9.13;6.87;;;6.40;94.00;;;5.18;99.70;97699.97;5022816;28;20469;-69
2023/12/29 06:49:53;;;;;;;10.10;7.10;;;6.50;93.60;;;5.52;98.17;97765.47;5014319;28;20494;-68
2023/12/29 06:52:21;;;;;;;7.73;6.90;;;6.50;92.70;;;5.61;99.09;97784.94;5015669;28;20469;-68
2023/12/29 06:54:48;;;;;;;9.40;6.30;;;6.50;92.70;;;5.75;97.98;97785.91;4999843;28;20456;-68
2023/12/29 06:57:18;;;;;;;6.57;5.90;;;6.70;92.50;;;5.83;97.28;97782.28;5014578;28;20450;-67
2023/12/29 06:59:45;;;;;;;7.90;5.63;;;6.70;92.10;;;5.91;96.78;97792.06;4993237;28;20459;-67
2023/12/29 07:02:14;;;;;;;8.37;6.03;;;6.80;91.90;;;6.01;96.63;97789.09;5019438;28;20450;-70
2023/12/29 07:04:43;;;;;;;6.47;5.90;;;6.80;91.70;;;6.04;95.69;97788.72;5001458;28;20844;-70
2023/12/29 07:07:13;;;;;;;9.47;6.17;;;7.00;91.50;;;6.24;94.59;97803.13;5015567;28;20881;-70
2023/12/29 07:09:42;;;;;;;6.80;6.10;;;7.00;91.20;;;6.28;94.32;97800.91;5022753;28;20482;-70
2023/12/29 07:12:10;;;;;;;9.43;6.23;;;7.10;90.90;;;6.35;93.55;97800.97;5003053;28;20463;-70
2023/12/29 07:14:38;;;;;;;11.77;6.10;;;7.20;90.80;;;6.49;92.63;97807.25;4998352;28;20474;-70
2023/12/29 07:17:05;;;;;;;6.40;5.30;;;7.30;90.40;;;6.52;93.42;97807.72;5000875;28;20545;-70
2023/12/29 07:19:37;;;;;;;6.87;6.00;;;7.30;90.30;;;6.56;92.53;97810.00;5022710;28;20453;-70
2023/12/29 07:22:06;;;;;;;6.40;5.70;;;7.40;90.30;;;6.73;91.68;97802.50;5004415;28;20458;-69
2023/12/29 07:24:36;;;;;;;6.37;5.60;;;7.50;90.00;;;6.78;91.19;97806.25;5026986;28;20456;-69
2023/12/29 07:27:04;;;;;;;6.97;5.67;;;7.60;89.70;;;6.71;91.38;97821.47;5008287;28;20450;-70
2023/12/29 07:29:33;;;;;;;6.40;5.70;;;7.60;89.30;;;6.88;90.80;97805.06;5024617;28;20989;-69
2023/12/29 07:32:00;;;;;;;6.00;5.37;;;7.60;89.30;;;6.85;91.53;97810.81;5026844;28;20463;-69
2023/12/29 07:34:30;;;;;;;5.90;5.30;;;7.60;89.30;;;6.96;90.61;97804.91;5009636;28;20821;-68
2023/12/29 07:36:59;;;;;;;6.13;5.30;;;7.80;89.10;;;6.99;90.57;97815.25;4987955;28;20452;-69
2023/12/29 07:39:30;;;;;;;6.40;5.80;;;7.80;89.00;;;7.08;90.36;97814.09;5028219;28;20454;-69
2023/12/29 07:41:57;;;;;;;6.17;5.57;;;7.80;89.00;;;7.12;89.80;97816.38;5025375;28;20447;-69
2023/12/29 07:44:24;;;;;;;6.27;5.70;;;7.90;88.70;;;7.02;90.07;97820.22;5029302;28;20459;-68
2023/12/29 07:46:52;;;;;;;6.00;5.40;;;7.90;88.50;;;7.07;90.00;97812.44;5023701;28;20465;-70
2023/12/29 07:49:19;;;;;;;6.10;5.20;;;7.90;88.40;;;7.17;89.47;97820.13;5024279;28;20479;-69
2023/12/29 07:51:48;;;;;;;6.63;5.93;;;7.90;88.60;;;7.23;89.01;97822.00;5021374;28;20455;-69
2023/12/29 07:54:17;;;;;;;7.23;5.80;;;8.00;88.60;;;7.42;88.67;97826.84;5022225;28;20464;-69
2023/12/29 07:56:45;;;;;;;7.13;5.30;;;8.10;88.60;;;7.44;88.62;97830.16;5026367;28;20538;-70
2023/12/29 07:59:12;;;;;;;5.57;4.87;;;8.20;88.10;;;7.56;87.73;97841.16;5024784;28;20518;-69
2023/12/29 08:01:40;;;;;;;8.20;6.17;;;8.20;88.10;;;7.56;87.64;97844.69;5008780;28;20952;-69
2023/12/29 08:04:07;;;;;;;6.03;5.37;;;8.30;87.80;;;7.55;88.30;97851.13;5014010;28;20460;-69
2023/12/29 08:06:38;;;;;;;6.03;5.50;;;8.30;87.70;;;7.60;87.73;97853.22;5023845;28;20515;-70
2023/12/29 08:09:05;;;;;;;8.10;6.10;;;8.40;87.90;;;7.65;87.93;97865.00;5024561;28;20505;-69
2023/12/29 08:11:35;;;;;;;6.03;5.50;;;8.40;87.80;;;7.80;86.91;97861.34;5027602;28;20955;-69
2023/12/29 08:14:03;;;;;;;6.00;5.17;;;8.50;87.80;;;7.88;87.59;97863.00;5030251;28;20541;-71
2023/12/29 08:16:30;;;;;;;6.63;4.70;;;8.50;87.70;;;7.79;87.42;97860.50;5026034;28;20442;-70
2023/12/29 08:18:57;;;;;;;5.00;4.50;;;8.60;87.60;;;8.02;87.86;97869.28;5030511;28;20458;-69
2023/12/29 08:21:25;;;;;;;4.23;3.83;;;8.70;87.70;;;7.98;88.35;97868.84;5026191;28;20806;-69
2023/12/29 08:23:52;;;;;;;5.37;4.87;;;8.70;87.70;;;8.23;87.15;97879.06;5017326;28;20946;-68
2023/12/29 08:26:20;;;;;;;5.90;5.20;;;8.90;87.50;;;8.27;86.86;97882.19;5004555;28;20829;-70
2023/12/29 08:28:48;;;;;;;7.10;4.60;;;9.00;87.70;;;8.33;86.24;97866.03;5009358;28;20550;-68
2023/12/29 08:31:16;;;;;;;3.30;3.00;;;9.10;87.40;;;8.18;87.18;97851.91;5022575;28;20961;-70
2023/12/29 08:33:44;;;;;;;6.23;3.73;;;9.10;87.20;;;8.37;87.02;97855.69;5027151;28;20453;-69
2023/12/29 08:36:13;;;;;;;3.73;3.40;;;9.20;87.50;;;8.65;85.90;97873.56;5026334;28;20453;-69
2023/12/29 08:38:40;;;;;;;2.83;2.53;;;9.30;87.30;;;8.93;83.96;97878.72;5016239;28;20456;-70
2023/12/29 08:41:08;;;;;;;3.53;2.13;;;9.60;86.80;;;8.84;84.21;97879.16;5021616;28;20560;-68
2023/12/29 08:43:36;;;;;;;2.43;1.37;;;9.60;86.40;;;8.89;83.03;97882.88;5026712;28;21149;-69
2023/12/29 08:46:05;;;;;;;5.30;1.70;;;9.70;85.90;;;8.97;82.44;97881.84;5013003;28;20487;-70
2023/12/29 08:48:32;;;;;;;1.73;1.60;;;9.70;85.20;;;9.03;81.68;97891.81;5005206;28;20818;-69
2023/12/29 08:51:10;;;;;;;1.80;1.70;;;9.80;84.80;;;8.95;80.89;97883.91;5009190;28;20447;-70
2023/12/29 08:53:37;;;;;;;2.37;1.73;;;9.80;84.50;;;9.13;80.43;97885.13;5027114;28;20458;-69
2023/12/29 08:56:05;;;;;;;3.80;1.50;;;9.90;84.20;;;9.43;77.55;97881.97;5022230;28;20465;-68
2023/12/29 08:58:33;;;;;;;1.57;1.47;;;10.10;82.40;;;9.64;76.44;97891.66;5024339;28;20878;-69
2023/12/29 09:01:01;;;;;;;1.37;1.20;;;10.30;81.70;;;9.51;76.22;97881.75;5023365;28;20455;-68
2023/12/29 09:03:34;;;;;;;2.20;1.50;;;10.30;80.90;;;9.56;75.88;97895.44;5025787;28;20472;-70
2023/12/29 09:06:02;;;;;;;1.20;1.10;;;10.40;80.50;;;9.65;74.91;97898.72;5010225;28;20448;-70
2023/12/29 09:08:30;;;;;;;1.37;1.10;;;10.40;80.30;;;9.78;74.03;97892.44;5024764;28;20950;-70
2023/12/29 09:10:58;;;;;;;1.53;1.40;;;10.50;79.90;;;9.80;74.31;97895.78;5027092;28;20454;-70
2023/12/29 09:13:26;;;;;;;1.33;1.23;;;10.50;80.00;;;9.75;73.26;97903.66;5019679;28;20445;-69
2023/12/29 09:15:55;;;;;;;1.47;1.37;;;10.50;79.30;;;9.64;74.53;97903.31;5023312;28;20479;-70
2023/12/29 09:18:24;;;;;;;1.67;1.37;;;10.50;79.40;;;9.58;75.15;97896.03;5022358;28;20501;-70
2023/12/29 09:20:53;;;;;;;1.33;1.23;;;10.50;79.60;;;9.85;72.93;97909.44;5025638;28;20823;-69
2023/12/29 09:23:20;;;;;;;1.67;1.10;;;10.60;79.10;;;9.87;73.02;97912.75;5029698;28;20460;-70
2023/12/29 09:25:49;;;;;;;3.13;1.10;;;10.60;79.00;;;9.89;73.72;97905.28;5029913;28;20935;-69
2023/12/29 09:28:16;;;;;;;1.50;1.40;;;10.70;79.00;;;9.85;72.63;97892.41;5018908;28;21015;-70
2023/12/29 09:30:43;;;;;;;1.37;1.20;;;10.70;78.70;;;9.84;73.05;97888.91;5021605;28;20461;-69
2023/12/29 09:33:12;;;;;;;2.23;1.40;;;10.60;78.60;;;9.88;73.97;97892.81;5020038;28;20455;-70
2023/12/29 09:35:39;;;;;;;1.67;1.57;;;10.60;78.90;;;10.05;72.86;97892.31;5003471;28;20462;-69
2023/12/29 09:38:09;;;;;;;1.43;1.33;;;10.70;78.60;;;9.85;73.59;97898.66;5004510;28;20457;-70
2023/12/29 09:40:37;;;;;;;1.90;1.80;;;10.70;78.70;;;9.85;73.03;97901.34;5016582;28;20552;-68
2023/12/29 09:43:05;;;;;;;1.90;1.70;;;10.70;78.60;;;9.72;74.43;97887.91;4995952;28;20854;-69
2023/12/29 09:45:39;;;;;;;2.57;1.40;;;10.50;78.80;;;9.73;74.02;97894.94;5010453;28;21203;-70
2023/12/29 09:48:09;;;;;;;2.20;1.90;;;10.50;78.90;;;9.61;73.63;97881.31;5019590;28;20548;-70
2023/12/29 09:50:37;;;;;;;1.90;1.70;;;10.50;78.80;;;9.73;73.78;97894.94;4997180;28;20479;-70
2023/12/29 09:53:05;;;;;;;1.67;1.43;;;10.50;78.80;;;9.57;74.21;97886.28;5016563;28;20552;-68
2023/12/29 09:55:35;;;;;;;1.60;1.50;;;10.40;78.90;;;9.64;74.36;97881.72;5016741;28;20456;-69
2023/12/29 09:58:04;;;;;;;1.53;1.30;;;10.40;79.00;;;9.54;75.13;97881.31;4995174;28;20446;-68
2023/12/29 10:00:32;;;;;;;2.50;2.03;;;10.30;78.90;;;9.67;74.65;97879.63;5022574;28;20928;-70
2023/12/29 10:02:59;;;;;;;2.60;1.90;;;10.40;79.20;;;9.77;74.75;97864.63;5013699;28;20455;-69
2023/12/29 10:05:27;;;;;;;2.07;1.83;;;10.50;79.20;;;9.45;75.57;97866.41;5014644;28;20451;-69
2023/12/29 10:07:55;;;;;;;3.47;2.50;;;10.40;79.00;;;9.70;75.12;97865.72;5028703;28;20538;-70
2023/12/29 10:10:24;;;;;;;5.00;2.20;;;10.50;79.20;;;9.73;74.68;97857.19;5029852;28;20485;-69
2023/12/29 10:12:54;;;;;;;2.63;2.40;;;10.50;79.10;;;9.85;74.82;97866.28;5025384;28;20515;-70
2023/12/29 10:15:32;;;;;;;3.97;2.90;;;10.50;79.10;;;9.99;74.03;97855.41;5014836;28;20453;-71
2023/12/29 10:18:08;;;;;;;3.40;2.30;;;10.60;79.00;;;9.87;74.45;97856.09;5021033;28;20455;-69
2023/12/29 10:20:46;;;;;;;1.97;1.80;;;10.60;79.10;;;9.87;74.04;97856.09;5011318;28;20461;-70
2023/12/29 10:23:18;;;;;;;1.87;1.43;;;10.60;79.10;;;9.99;74.57;97860.81;5029493;28;20445;-69
2023/12/29 10:25:46;;;;;;;2.57;2.30;;;10.70;79.20;;;10.10;74.42;97864.69;5022058;28;20489;-69
2023/12/29 10:28:18;;;;;;;2.73;2.00;;;10.80;79.50;;;10.04;75.87;97863.69;5021239;28;20469;-71
2023/12/29 10:30:46;;;;;;;2.43;2.20;;;10.80;79.80;;;9.32;77.06;97776.41;5006103;28;20471;-70
2023/12/29 10:33:22;;;;;;;2.20;1.73;;;10.70;80.30;;;9.66;79.57;97861.78;5022829;28;20963;-71
2023/12/29 10:36:02;;;;;;;1.80;1.70;;;10.50;80.90;;;9.82;79.45;97845.13;5013735;28;20972;-70